Time;durP1;ratioP1;P1;durP2;ratioP2;P2;SDS_P1;SDS_P2;PMS_P1;PMS_P2;Temp;Humidity;BMP_temperature;BMP_pressure;BME280_temperature;BME280_humidity;BME280_pressure;Samples;Min_cycle;Max_cycle;Signal;HPM_P1;HPM_P2
2024/04/05 00:01:28;;;;;;;14.30;3.05;;;;;;;15.34;55.48;100967.75;4954746;28;123554;-82
2024/04/05 00:03:57;;;;;;;16.58;3.72;;;;;;;15.37;55.59;100967.56;4960491;28;114420;-81
2024/04/05 00:06:24;;;;;;;19.15;3.58;;;;;;;15.42;55.56;100966.41;4951709;28;113583;-82
2024/04/05 00:08:50;;;;;;;18.23;3.05;;;;;;;15.43;55.48;100962.78;4954854;28;124731;-82
2024/04/05 00:11:16;;;;;;;13.25;2.63;;;;;;;15.46;55.64;100955.41;4940234;28;126187;-81
2024/04/05 00:13:43;;;;;;;15.82;3.20;;;;;;;15.49;55.58;100954.38;4950319;28;114315;-81
2024/04/05 00:16:09;;;;;;;19.10;3.50;;;;;;;15.50;55.55;100950.75;4952806;28;113467;-81
2024/04/05 00:18:36;;;;;;;15.15;3.55;;;;;;;15.51;55.58;100952.47;4948885;28;125183;-82
2024/04/05 00:21:03;;;;;;;20.15;3.20;;;;;;;15.51;55.72;100947.97;4952352;28;122311;-82
2024/04/05 00:23:31;;;;;;;16.63;3.58;;;;;;;15.51;55.62;100941.78;4954063;28;115369;-81
2024/04/05 00:26:02;;;;;;;17.67;3.30;;;;;;;15.49;55.65;100939.22;4952895;28;114787;-81
2024/04/05 00:28:29;;;;;;;15.90;2.92;;;;;;;15.49;55.55;100933.03;4969875;28;123174;-81
2024/04/05 00:30:55;;;;;;;13.77;3.35;;;;;;;15.48;55.80;100920.63;4935413;28;125660;-80
2024/04/05 00:33:22;;;;;;;17.30;2.95;;;;;;;15.47;55.73;100926.94;4967673;28;114182;-81
2024/04/05 00:35:50;;;;;;;16.33;3.13;;;;;;;15.46;55.88;100933.22;4965494;28;114408;-81
2024/04/05 00:38:17;;;;;;;17.85;3.45;;;;;;;15.45;55.91;100936.84;4946918;28;124971;-85
2024/04/05 00:40:43;;;;;;;16.27;3.20;;;;;;;15.44;55.96;100935.13;4948643;28;122826;-81
2024/04/05 00:43:09;;;;;;;19.42;3.72;;;;;;;15.44;56.10;100932.47;4943849;28;114548;-81
2024/04/05 00:45:36;;;;;;;16.77;3.17;;;;;;;15.42;56.29;100931.72;4960939;28;113212;-81
2024/04/05 00:48:02;;;;;;;18.52;3.45;;;;;;;15.43;56.30;100938.78;4949258;28;122883;-84
2024/04/05 00:50:30;;;;;;;17.35;3.13;;;;;;;15.43;56.44;100944.13;4949210;28;120724;-81
2024/04/05 00:52:59;;;;;;;19.55;3.47;;;;;;;15.44;56.48;100941.31;4934744;28;114801;-81
2024/04/05 00:55:30;;;;;;;16.08;3.42;;;;;;;15.46;56.56;100946.56;4942352;28;114648;-81
2024/04/05 00:58:01;;;;;;;18.45;3.38;;;;;;;15.47;56.58;100945.63;4951839;28;123973;-81
2024/04/05 01:00:28;;;;;;;15.18;3.50;;;;;;;15.49;56.47;100943.72;4951036;28;123858;-81
2024/04/05 01:02:55;;;;;;;18.45;3.95;;;;;;;15.52;56.58;100954.16;4947598;28;114456;-84
2024/04/05 01:05:21;;;;;;;16.75;3.33;;;;;;;15.53;56.65;100939.88;4952420;28;113746;-81
2024/04/05 01:07:52;;;;;;;18.75;3.08;;;;;;;15.54;56.61;100941.59;4933487;28;124650;-81
2024/04/05 01:10:22;;;;;;;22.70;3.88;;;;;;;15.54;56.64;100930.94;4942048;28;123664;-82
2024/04/05 01:12:59;;;;;;;18.30;3.47;;;;;;;15.55;56.80;100932.63;4951539;28;114768;-81
2024/04/05 01:15:25;;;;;;;19.50;3.58;;;;;;;15.54;56.86;100939.78;4949783;28;113648;-82
2024/04/05 01:17:51;;;;;;;16.55;3.72;;;;;;;15.53;56.81;100945.22;4960997;28;126386;-81
2024/04/05 01:20:19;;;;;;;11.57;3.13;;;;;;;15.52;56.87;100939.03;4931729;28;125318;-81
2024/04/05 01:22:52;;;;;;;20.30;3.60;;;;;;;15.52;56.74;100932.81;4947282;28;114893;-81
2024/04/05 01:25:21;;;;;;;17.17;3.05;;;;;;;15.51;56.77;100931.13;4948940;28;114382;-81
2024/04/05 01:27:48;;;;;;;17.60;3.38;;;;;;;15.51;56.68;100934.63;4950508;28;123353;-82
2024/04/05 01:30:15;;;;;;;20.25;3.50;;;;;;;15.51;56.80;100936.47;4950416;28;125267;-82
2024/04/05 01:32:52;;;;;;;13.93;2.90;;;;;;;15.51;56.91;100936.47;4935283;28;115979;-82
2024/04/05 01:35:18;;;;;;;19.10;3.08;;;;;;;15.51;56.96;100931.13;4945283;28;115847;-81
2024/04/05 01:37:45;;;;;;;19.20;2.88;;;;;;;15.50;56.96;100926.72;4949749;28;123261;-81
2024/04/05 01:40:11;;;;;;;20.48;4.30;;;;;;;15.51;57.03;100928.44;4943322;28;123961;-82
2024/04/05 01:42:37;;;;;;;16.23;3.08;;;;;;;15.51;57.17;100936.47;4923834;28;114891;-82
2024/04/05 01:45:04;;;;;;;16.88;3.42;;;;;;;15.52;57.16;100932.81;4943314;28;115128;-81
2024/04/05 01:47:30;;;;;;;16.65;3.05;;;;;;;15.53;57.07;100929.19;4939351;28;124631;-81
2024/04/05 01:49:57;;;;;;;15.38;3.47;;;;;;;15.53;57.06;100918.53;4946177;28;123724;-82
2024/04/05 01:52:23;;;;;;;18.20;3.53;;;;;;;15.53;57.08;100923.88;4955488;28;114509;-83
2024/04/05 01:54:49;;;;;;;18.17;3.20;;;;;;;15.52;56.99;100922.13;4932307;28;115231;-81
2024/04/05 01:57:16;;;;;;;15.20;3.25;;;;;;;15.53;56.95;100923.88;4939812;28;124239;-81
2024/04/05 01:59:55;;;;;;;18.40;3.30;;;;;;;15.52;57.23;100932.81;4943505;28;124949;-81
2024/04/05 02:02:22;;;;;;;24.35;3.70;;;;;;;15.53;57.21;100926.53;4950333;28;114515;-83
2024/04/05 02:04:52;;;;;;;14.82;3.10;;;;;;;15.53;57.23;100921.19;4948505;28;114963;-82
2024/04/05 02:07:23;;;;;;;19.73;3.42;;;;;;;15.52;57.16;100914.13;4960220;28;123584;-83
2024/04/05 02:09:50;;;;;;;13.55;3.60;;;;;;;15.52;57.10;100924.81;4945673;28;123006;-81
2024/04/05 02:12:17;;;;;;;15.38;3.58;;;;;;;15.52;57.24;100911.47;4934808;28;114573;-82
2024/04/05 02:14:44;;;;;;;19.20;3.45;;;;;;;15.49;57.04;100906.34;4939410;28;114884;-81
2024/04/05 02:17:10;;;;;;;16.60;3.42;;;;;;;15.47;57.13;100908.25;4960439;28;123380;-82
2024/04/05 02:19:37;;;;;;;20.05;3.53;;;;;;;15.45;57.41;100905.69;4927385;28;124975;-81
2024/04/05 02:22:08;;;;;;;14.50;3.67;;;;;;;15.44;57.38;100908.44;4944277;28;116256;-81
2024/04/05 02:24:34;;;;;;;15.48;3.13;;;;;;;15.42;57.37;100910.34;4940054;28;115516;-81
2024/04/05 02:27:01;;;;;;;16.35;3.10;;;;;;;15.37;57.43;100903.50;4947888;28;124584;-81
2024/04/05 02:29:28;;;;;;;15.35;3.45;;;;;;;15.35;57.58;100902.75;4944982;28;124983;-81
2024/04/05 02:31:54;;;;;;;18.70;3.50;;;;;;;15.35;57.54;100909.88;4934377;28;114985;-81
2024/04/05 02:34:21;;;;;;;18.80;3.65;;;;;;;15.32;57.79;100910.94;4940566;28;114981;-82
2024/04/05 02:36:50;;;;;;;18.02;3.35;;;;;;;15.33;57.67;100917.13;4945848;28;125349;-81
2024/04/05 02:39:17;;;;;;;17.90;3.25;;;;;;;15.31;57.74;100919.91;4962202;28;124549;-81
2024/04/05 02:41:45;;;;;;;17.98;3.53;;;;;;;15.30;57.96;100912.84;4934712;28;113211;-83
2024/04/05 02:44:11;;;;;;;17.08;3.80;;;;;;;15.30;57.83;100912.84;4950211;28;114135;-82
2024/04/05 02:46:39;;;;;;;18.23;3.85;;;;;;;15.31;57.99;100914.59;4947974;28;124920;-82
2024/04/05 02:49:06;;;;;;;16.00;3.50;;;;;;;15.32;58.02;100921.63;4952305;28;125025;-82
2024/04/05 02:51:32;;;;;;;17.73;3.45;;;;;;;15.33;58.19;100923.34;4945206;28;115029;-84
2024/04/05 02:53:58;;;;;;;16.83;3.30;;;;;;;15.33;58.18;100928.69;4943715;28;113282;-82
2024/04/05 02:56:24;;;;;;;13.05;3.40;;;;;;;15.35;58.43;100925.88;4950903;28;124154;-85
2024/04/05 02:58:51;;;;;;;12.85;3.58;;;;;;;15.35;58.36;100921.44;4945916;28;123626;-81
2024/04/05 03:01:17;;;;;;;13.95;3.45;;;;;;;15.37;58.50;100924.00;4945136;28;115090;-82
2024/04/05 03:03:45;;;;;;;16.38;3.67;;;;;;;15.38;58.52;100925.72;4949403;28;113875;-81
2024/04/05 03:06:11;;;;;;;12.48;3.67;;;;;;;15.41;58.51;100924.63;4940847;28;125165;-82
2024/04/05 03:08:38;;;;;;;19.92;3.78;;;;;;;15.43;58.71;100917.41;4929458;28;125233;-81
2024/04/05 03:11:04;;;;;;;12.80;3.20;;;;;;;15.44;58.57;100919.13;4945105;28;113410;-81
2024/04/05 03:13:30;;;;;;;16.35;3.55;;;;;;;15.45;58.75;100921.69;4946931;28;116169;-81
2024/04/05 03:15:56;;;;;;;17.30;3.30;;;;;;;15.48;58.70;100909.94;4949785;28;125067;-81
2024/04/05 03:18:22;;;;;;;16.73;3.67;;;;;;;15.51;58.93;100918.63;4952015;28;124179;-81
2024/04/05 03:20:48;;;;;;;12.73;3.35;;;;;;;15.54;58.97;100917.59;4950732;28;115536;-83
2024/04/05 03:23:15;;;;;;;16.30;3.58;;;;;;;15.56;58.83;100918.34;4969067;28;114868;-82
2024/04/05 03:25:41;;;;;;;17.20;3.65;;;;;;;15.57;58.94;100898.69;4949186;28;124980;-81
2024/04/05 03:28:07;;;;;;;13.10;3.72;;;;;;;15.60;58.93;100898.50;4929752;28;124723;-81
2024/04/05 03:30:35;;;;;;;14.80;3.28;;;;;;;15.62;59.10;100896.56;4943631;28;113901;-82
2024/04/05 03:33:01;;;;;;;15.65;3.13;;;;;;;15.64;59.11;100889.31;4945844;28;114710;-81
2024/04/05 03:35:27;;;;;;;19.48;3.70;;;;;;;15.69;59.21;100897.00;4938314;28;124198;-81
2024/04/05 03:37:54;;;;;;;14.77;3.30;;;;;;;15.71;59.27;100901.31;4959027;28;125766;-81
2024/04/05 03:40:21;;;;;;;13.15;3.20;;;;;;;15.73;59.42;100910.09;4946424;28;114679;-83
2024/04/05 03:42:50;;;;;;;14.20;3.30;;;;;;;15.75;59.53;100900.19;4948457;28;112896;-81
2024/04/05 03:45:16;;;;;;;10.30;3.08;;;;;;;15.77;59.39;100895.59;4927537;28;123828;-81
2024/04/05 03:47:43;;;;;;;11.68;2.72;;;;;;;15.80;59.51;100899.88;4939957;28;122635;-81
2024/04/05 03:50:09;;;;;;;13.50;3.50;;;;;;;15.84;59.56;100889.84;4964255;28;113553;-82
2024/04/05 03:52:36;;;;;;;14.68;2.90;;;;;;;15.87;59.50;100889.66;4934123;28;113471;-82
2024/04/05 03:55:04;;;;;;;15.65;3.58;;;;;;;15.88;59.58;100888.66;4934973;28;125720;-82
2024/04/05 03:57:31;;;;;;;11.52;2.92;;;;;;;15.91;59.70;100891.16;4947158;28;123998;-82
2024/04/05 03:59:59;;;;;;;15.07;2.95;;;;;;;15.93;59.64;100889.22;4931377;28;114758;-86
2024/04/05 04:02:25;;;;;;;11.85;2.90;;;;;;;15.95;59.98;100884.63;4960493;28;114711;-83
2024/04/05 04:04:51;;;;;;;12.07;3.30;;;;;;;15.98;59.57;100891.59;4927786;28;125201;-84
2024/04/05 04:07:17;;;;;;;13.10;2.95;;;;;;;16.01;59.73;100897.59;4946364;28;125005;-82
2024/04/05 04:09:46;;;;;;;12.52;3.20;;;;;;;16.03;59.64;100890.34;4949934;28;117119;-82
2024/04/05 04:12:13;;;;;;;11.60;3.20;;;;;;;16.04;59.69;100886.69;4947596;28;113895;-82
2024/04/05 04:14:40;;;;;;;9.98;2.53;;;;;;;16.06;59.81;100874.09;4931405;28;126663;-83
2024/04/05 04:17:07;;;;;;;11.82;3.17;;;;;;;16.09;59.92;100871.22;4960716;28;124041;-82
2024/04/05 04:19:33;;;;;;;12.40;2.90;;;;;;;16.09;59.78;100844.50;4938709;28;114402;-82
2024/04/05 04:21:59;;;;;;;16.67;3.25;;;;;;;16.09;59.98;100847.16;4952483;28;112905;-82
2024/04/05 04:24:25;;;;;;;12.13;3.10;;;;;;;16.08;59.85;100829.41;4939994;28;124970;-85
2024/04/05 04:26:51;;;;;;;15.18;3.17;;;;;;;16.09;59.91;100841.81;4948598;28;123526;-83
2024/04/05 04:29:18;;;;;;;13.52;3.08;;;;;;;16.09;60.00;100859.69;4934270;28;114849;-84
2024/04/05 04:31:45;;;;;;;13.52;3.80;;;;;;;16.09;59.87;100868.53;4932713;28;115791;-82
2024/04/05 04:34:11;;;;;;;14.98;3.03;;;;;;;16.10;60.33;100858.69;4948363;28;123729;-82
2024/04/05 04:36:37;;;;;;;15.10;3.10;;;;;;;16.09;60.22;100857.84;4969650;28;124396;-82
2024/04/05 04:39:08;;;;;;;12.15;3.15;;;;;;;16.09;60.18;100847.16;4952062;28;114838;-82
2024/04/05 04:41:35;;;;;;;12.38;2.65;;;;;;;16.10;60.47;100851.53;4941938;28;113380;-82
2024/04/05 04:44:02;;;;;;;12.02;3.03;;;;;;;16.10;60.25;100864.03;4946960;28;125210;-82
2024/04/05 04:46:29;;;;;;;12.02;3.00;;;;;;;16.08;60.44;100864.16;4942863;28;125630;-82
2024/04/05 04:48:57;;;;;;;13.70;2.95;;;;;;;16.09;60.74;100863.19;4948066;28;116796;-82
2024/04/05 04:51:24;;;;;;;16.20;3.28;;;;;;;16.09;60.61;100863.19;4954571;28;115005;-82
2024/04/05 04:53:50;;;;;;;13.45;3.08;;;;;;;16.08;60.58;100861.47;4950260;28;124396;-84
2024/04/05 04:56:16;;;;;;;14.40;3.45;;;;;;;16.09;60.67;100868.53;4968329;28;123178;-83
2024/04/05 04:58:44;;;;;;;13.43;3.22;;;;;;;16.09;60.92;100863.19;4959111;28;114132;-84
2024/04/05 05:01:10;;;;;;;11.98;3.70;;;;;;;16.10;60.89;100848.88;4938177;28;112942;-84
2024/04/05 05:03:36;;;;;;;10.20;3.13;;;;;;;16.10;61.00;100848.88;4934248;28;122449;-84
2024/04/05 05:06:03;;;;;;;11.32;3.30;;;;;;;16.11;60.75;100844.41;4957838;28;124077;-83
2024/04/05 05:08:29;;;;;;;14.55;3.20;;;;;;;16.10;60.60;100848.88;4939800;28;114833;-83
2024/04/05 05:10:56;;;;;;;11.70;3.33;;;;;;;16.10;60.88;100843.53;4958555;28;114353;-83
2024/04/05 05:13:22;;;;;;;8.85;2.78;;;;;;;16.11;61.02;100849.75;4948584;28;125266;-83
2024/04/05 05:15:48;;;;;;;10.93;2.92;;;;;;;16.11;61.00;100847.06;4948289;28;122872;-85
2024/04/05 05:18:15;;;;;;;13.40;3.08;;;;;;;16.11;61.09;100850.59;4960865;28;113543;-83
2024/04/05 05:20:47;;;;;;;11.65;3.00;;;;;;;16.12;60.97;100852.31;4943880;28;114794;-84
2024/04/05 05:23:14;;;;;;;12.23;3.05;;;;;;;16.12;61.10;100846.09;4945859;28;125225;-82
2024/04/05 05:25:43;;;;;;;10.40;2.88;;;;;;;16.12;61.27;100841.63;4960802;28;124182;-83
2024/04/05 05:28:09;;;;;;;12.43;3.63;;;;;;;16.13;61.13;100843.31;4950395;28;112957;-84
2024/04/05 05:30:36;;;;;;;14.07;3.42;;;;;;;16.11;61.24;100839.91;4955640;28;113901;-83
2024/04/05 05:33:04;;;;;;;8.75;2.72;;;;;;;16.11;61.25;100833.72;4953563;28;123640;-83
2024/04/05 05:35:30;;;;;;;10.65;3.10;;;;;;;16.11;61.00;100829.22;4952167;28;125159;-83
2024/04/05 05:38:02;;;;;;;9.75;2.85;;;;;;;16.11;61.44;100823.03;4947999;28;115952;-83
2024/04/05 05:40:30;;;;;;;12.80;3.63;;;;;;;16.08;61.25;100808.03;4952394;28;114876;-82
2024/04/05 05:42:56;;;;;;;10.52;3.13;;;;;;;16.08;61.31;100813.38;4947568;28;124439;-83
2024/04/05 05:45:23;;;;;;;8.57;2.80;;;;;;;16.08;61.38;100800.03;4948791;28;122240;-82
2024/04/05 05:47:56;;;;;;;8.07;2.70;;;;;;;16.07;61.56;100774.28;4950266;28;113378;-84
2024/04/05 05:50:24;;;;;;;11.80;2.90;;;;;;;16.09;61.62;100772.34;4935494;28;115056;-82
2024/04/05 05:52:51;;;;;;;10.90;3.08;;;;;;;16.11;61.61;100780.28;4951751;28;123471;-83
2024/04/05 05:55:17;;;;;;;11.27;3.10;;;;;;;16.12;61.73;100768.59;4948918;28;125102;-85
2024/04/05 05:57:44;;;;;;;13.68;3.03;;;;;;;16.14;61.51;100764.88;4926477;28;115198;-84
2024/04/05 06:00:10;;;;;;;13.75;3.00;;;;;;;16.15;61.66;100761.22;4948719;28;116284;-83
2024/04/05 06:02:40;;;;;;;14.32;3.10;;;;;;;16.20;61.95;100768.06;4947767;28;125631;-83
2024/04/05 06:05:09;;;;;;;13.65;2.67;;;;;;;16.25;61.90;100765.94;4967713;28;124281;-81
2024/04/05 06:07:35;;;;;;;10.30;2.88;;;;;;;16.29;62.29;100756.72;4951458;28;115529;-81
2024/04/05 06:10:02;;;;;;;10.38;2.70;;;;;;;16.34;61.98;100758.13;4945813;28;115144;-82
2024/04/05 06:12:29;;;;;;;13.55;2.97;;;;;;;16.40;62.21;100738.13;4933542;28;125077;-83
2024/04/05 06:14:56;;;;;;;11.70;3.03;;;;;;;16.44;62.12;100742.28;4944792;28;125044;-85
2024/04/05 06:17:31;;;;;;;11.05;2.85;;;;;;;16.49;62.26;100740.13;4928651;28;114959;-81
2024/04/05 06:19:57;;;;;;;8.35;2.65;;;;;;;16.54;62.20;100723.78;4925057;28;115144;-83
2024/04/05 06:22:26;;;;;;;8.95;2.45;;;;;;;16.57;62.18;100712.84;4944776;28;124968;-83
2024/04/05 06:24:53;;;;;;;8.27;2.45;;;;;;;16.60;62.22;100723.34;4951949;28;124844;-82
2024/04/05 06:27:20;;;;;;;12.48;2.80;;;;;;;16.65;62.17;100725.66;4953753;28;114944;-82
2024/04/05 06:29:50;;;;;;;9.75;2.58;;;;;;;16.68;62.32;100730.78;4954793;28;114188;-82
2024/04/05 06:32:17;;;;;;;10.07;2.50;;;;;;;16.70;62.13;100723.50;4931891;28;125235;-82
2024/04/05 06:34:44;;;;;;;9.00;2.95;;;;;;;16.73;62.12;100728.66;4929947;28;123770;-82
2024/04/05 06:37:14;;;;;;;10.70;2.58;;;;;;;16.77;62.27;100724.78;4947160;28;115425;-84
2024/04/05 06:39:40;;;;;;;13.30;2.78;;;;;;;16.81;62.14;100731.63;4945946;28;113172;-84
2024/04/05 06:42:08;;;;;;;10.82;3.15;;;;;;;16.83;62.19;100708.31;4963304;28;124349;-83
2024/04/05 06:44:35;;;;;;;5.53;2.55;;;;;;;16.88;62.13;100698.13;4954383;28;124601;-83
2024/04/05 06:47:09;;;;;;;11.15;2.65;;;;;;;16.91;62.13;100699.72;4931059;28;115354;-84
2024/04/05 06:49:39;;;;;;;9.57;2.72;;;;;;;16.95;62.13;100700.34;4948752;28;114477;-82
2024/04/05 06:52:08;;;;;;;11.88;2.80;;;;;;;17.00;61.95;100695.50;4939797;28;123262;-82
2024/04/05 06:54:39;;;;;;;10.93;3.05;;;;;;;17.05;62.06;100696.03;4922639;28;124997;-83
2024/04/05 06:57:05;;;;;;;14.43;3.67;;;;;;;17.10;61.94;100683.13;4940796;28;114020;-82
2024/04/05 06:59:33;;;;;;;10.95;3.25;;;;;;;17.15;61.99;100702.38;4930849;28;115277;-82
2024/04/05 07:01:59;;;;;;;11.48;3.00;;;;;;;17.19;62.03;100687.81;4946409;28;124232;-85
2024/04/05 07:04:26;;;;;;;12.30;3.30;;;;;;;17.25;62.01;100686.50;4949801;28;125902;-84
2024/04/05 07:06:53;;;;;;;10.77;2.85;;;;;;;17.30;61.90;100678.97;4938893;28;113354;-82
2024/04/05 07:09:20;;;;;;;10.50;3.20;;;;;;;17.36;61.78;100673.13;4960751;28;113910;-81
2024/04/05 07:11:47;;;;;;;6.60;2.88;;;;;;;17.42;62.03;100669.13;4949153;28;124393;-81
2024/04/05 07:14:16;;;;;;;10.52;2.42;;;;;;;17.47;61.80;100664.28;4924745;28;125413;-82
2024/04/05 07:16:43;;;;;;;7.15;2.60;;;;;;;17.53;61.63;100663.81;4946288;28;115732;-83
2024/04/05 07:19:10;;;;;;;7.70;2.67;;;;;;;17.57;61.58;100675.13;4944167;28;113581;-83
2024/04/05 07:21:36;;;;;;;10.68;2.30;;;;;;;17.60;61.73;100681.13;4952771;28;124380;-82
2024/04/05 07:24:04;;;;;;;8.65;2.40;;;;;;;17.64;61.28;100676.38;4937662;28;124092;-82
2024/04/05 07:26:30;;;;;;;6.22;1.92;;;;;;;17.65;61.41;100689.66;4927759;28;114842;-81
2024/04/05 07:28:57;;;;;;;6.22;2.10;;;;;;;17.68;61.46;100681.38;4928761;28;115262;-81
2024/04/05 07:31:23;;;;;;;8.65;2.35;;;;;;;17.72;61.28;100676.63;4946921;28;123905;-84
2024/04/05 07:33:50;;;;;;;8.98;2.45;;;;;;;17.73;61.27;100669.47;4945324;28;124218;-82
2024/04/05 07:36:17;;;;;;;10.73;2.65;;;;;;;17.75;61.15;100667.53;4931595;28;114871;-82
2024/04/05 07:38:44;;;;;;;9.70;2.22;;;;;;;17.77;61.05;100665.56;4941485;28;114150;-82
2024/04/05 07:41:10;;;;;;;8.98;2.38;;;;;;;17.80;60.98;100654.59;4948118;28;124202;-83
2024/04/05 07:43:37;;;;;;;6.10;1.90;;;;;;;17.81;61.03;100650.97;4947965;28;125111;-82
2024/04/05 07:46:03;;;;;;;6.82;2.30;;;;;;;17.81;60.79;100645.59;4943168;28;115103;-84
2024/04/05 07:48:30;;;;;;;8.65;2.28;;;;;;;17.83;60.83;100643.66;4953190;28;114184;-82
2024/04/05 07:50:58;;;;;;;7.55;2.20;;;;;;;17.84;60.78;100640.00;4926296;28;125911;-82
2024/04/05 07:53:25;;;;;;;7.97;2.20;;;;;;;17.86;60.80;100643.44;4929656;28;124438;-82
2024/04/05 07:55:51;;;;;;;7.50;1.95;;;;;;;17.87;60.72;100637.09;4954092;28;114047;-84
2024/04/05 07:58:19;;;;;;;7.70;2.53;;;;;;;17.86;60.70;100622.84;4945798;28;114885;-82
2024/04/05 08:00:46;;;;;;;8.90;2.05;;;;;;;17.89;60.74;100627.13;4954817;28;123495;-82
2024/04/05 08:03:12;;;;;;;6.43;1.63;;;;;;;17.90;60.81;100623.47;4948090;28;124085;-82
2024/04/05 08:05:38;;;;;;;6.50;1.63;;;;;;;17.90;60.73;100628.84;4964447;28;115140;-84
2024/04/05 08:08:05;;;;;;;11.18;2.13;;;;;;;17.92;60.57;100621.53;4944373;28;116521;-82
2024/04/05 08:10:31;;;;;;;5.28;2.03;;;;;;;17.92;60.59;100610.81;4961319;28;124655;-83
2024/04/05 08:12:58;;;;;;;8.27;1.90;;;;;;;17.93;60.73;100607.13;4951167;28;123973;-85
2024/04/05 08:15:25;;;;;;;6.30;1.90;;;;;;;17.94;60.46;100611.53;4931442;28;115049;-84
2024/04/05 08:17:51;;;;;;;5.65;2.10;;;;;;;17.94;60.45;100619.56;4949643;28;113906;-83
2024/04/05 08:20:19;;;;;;;9.18;2.30;;;;;;;17.93;60.51;100617.84;4947294;28;124175;-84
2024/04/05 08:22:45;;;;;;;5.13;2.00;;;;;;;17.94;60.46;100598.13;4956276;28;124821;-83
2024/04/05 08:25:11;;;;;;;4.72;2.00;;;;;;;17.93;60.36;100596.41;4943238;28;115325;-85
2024/04/05 08:27:37;;;;;;;6.32;1.92;;;;;;;17.92;60.33;100594.72;4955274;28;114922;-83
2024/04/05 08:30:05;;;;;;;5.13;2.08;;;;;;;17.92;60.37;100594.72;4953841;28;124439;-87
2024/04/05 08:32:31;;;;;;;6.90;1.92;;;;;;;17.94;60.28;100582.06;4953135;28;124433;-83
2024/04/05 08:34:57;;;;;;;5.75;2.10;;;;;;;17.98;60.11;100583.50;4948860;28;114744;-82
2024/04/05 08:37:24;;;;;;;7.20;2.03;;;;;;;18.02;60.36;100563.53;4955295;28;114555;-85
2024/04/05 08:39:50;;;;;;;6.50;1.90;;;;;;;18.05;60.48;100568.66;4943536;28;123741;-84
2024/04/05 08:42:17;;;;;;;6.47;2.17;;;;;;;18.09;60.50;100562.06;4947825;28;122913;-84
2024/04/05 08:44:47;;;;;;;7.28;2.10;;;;;;;18.14;60.29;100555.47;4933021;28;112506;-83
2024/04/05 08:47:13;;;;;;;7.80;2.00;;;;;;;18.20;60.25;100557.66;4938038;28;112723;-83
2024/04/05 08:49:42;;;;;;;8.55;1.80;;;;;;;18.24;60.13;100551.06;4949367;28;124732;-85
2024/04/05 08:52:08;;;;;;;4.55;1.95;;;;;;;18.29;60.15;100543.50;4934030;28;122878;-83
2024/04/05 08:54:35;;;;;;;4.57;1.77;;;;;;;18.32;59.87;100551.28;4952465;28;114335;-84
2024/04/05 08:57:01;;;;;;;4.65;1.67;;;;;;;18.36;59.99;100554.56;4947723;28;113592;-83
2024/04/05 08:59:28;;;;;;;4.60;1.58;;;;;;;18.37;59.68;100551.75;4939802;28;124137;-82
2024/04/05 09:02:00;;;;;;;6.00;1.50;;;;;;;18.38;59.73;100558.81;4955158;28;123691;-83
2024/04/05 09:04:27;;;;;;;8.18;2.42;;;;;;;18.40;59.83;100556.88;4945442;28;114478;-82
2024/04/05 09:06:55;;;;;;;4.95;1.88;;;;;;;18.42;59.65;100571.00;4951507;28;114133;-83
2024/04/05 09:09:25;;;;;;;6.07;1.63;;;;;;;18.44;59.52;100611.97;4947848;28;124268;-83
2024/04/05 09:12:01;;;;;;;5.50;1.63;;;;;;;18.45;59.53;100618.16;4956181;28;123864;-83
2024/04/05 09:14:28;;;;;;;4.97;1.70;;;;;;;18.47;59.56;100641.19;4951296;28;114544;-85
2024/04/05 09:16:54;;;;;;;4.15;1.60;;;;;;;18.49;59.57;100644.59;4943949;28;114797;-85
2024/04/05 09:19:22;;;;;;;5.32;1.40;;;;;;;18.52;59.51;100645.34;4931945;28;125384;-85
2024/04/05 09:21:50;;;;;;;6.35;1.67;;;;;;;18.56;59.50;100652.16;4928082;28;123889;-85
2024/04/05 09:24:16;;;;;;;5.00;1.60;;;;;;;18.58;59.41;100655.56;4959517;28;114834;-83
2024/04/05 09:26:43;;;;;;;2.83;1.40;;;;;;;18.60;59.44;100653.59;4933060;28;114909;-85
2024/04/05 09:29:12;;;;;;;5.07;1.60;;;;;;;18.63;59.46;100648.00;4948871;28;124913;-84
2024/04/05 09:31:45;;;;;;;6.40;1.67;;;;;;;18.64;59.43;100638.97;4944297;28;123304;-84
2024/04/05 09:34:18;;;;;;;5.40;1.80;;;;;;;18.67;59.20;100660.19;4937885;28;115125;-84
2024/04/05 09:36:44;;;;;;;4.90;1.80;;;;;;;18.67;59.26;100646.75;4965430;28;114442;-83
2024/04/05 09:39:16;;;;;;;3.40;1.42;;;;;;;18.70;59.28;100654.53;4948745;28;124176;-83
2024/04/05 09:41:44;;;;;;;5.35;1.50;;;;;;;18.70;59.13;100643.81;4942370;28;124554;-83
2024/04/05 09:44:12;;;;;;;4.63;1.30;;;;;;;18.70;59.32;100649.19;4942445;28;117311;-83
2024/04/05 09:46:38;;;;;;;5.57;1.50;;;;;;;18.69;59.15;100652.84;4935941;28;115814;-83
2024/04/05 09:49:05;;;;;;;6.00;1.73;;;;;;;18.70;59.08;100649.19;4930344;28;123134;-82
2024/04/05 09:51:42;;;;;;;4.30;1.85;;;;;;;18.68;59.18;100645.78;4944563;28;123526;-84
2024/04/05 09:54:12;;;;;;;4.88;1.83;;;;;;;18.70;59.28;100638.44;4944023;28;114311;-83
2024/04/05 09:56:40;;;;;;;4.22;1.67;;;;;;;18.69;59.26;100626.03;4959264;28;114733;-83
2024/04/05 09:59:17;;;;;;;5.57;1.80;;;;;;;18.69;59.29;100617.97;4963300;28;126553;-85
2024/04/05 10:01:46;;;;;;;5.97;2.00;;;;;;;18.71;59.22;100585.66;4964424;28;123317;-86
2024/04/05 10:04:13;;;;;;;6.85;1.90;;;;;;;18.71;59.34;100575.78;4933896;28;115151;-83
2024/04/05 10:06:41;;;;;;;6.30;2.13;;;;;;;18.73;59.29;100584.53;4925132;28;114668;-83
2024/04/05 10:09:18;;;;;;;6.00;1.90;;;;;;;18.74;59.49;100586.25;4943315;28;123517;-83
2024/04/05 10:11:46;;;;;;;6.05;1.80;;;;;;;18.78;59.36;100590.38;4944115;28;124247;-83
2024/04/05 10:14:21;;;;;;;5.05;1.80;;;;;;;18.84;59.88;100581.84;4942619;28;115307;-85
2024/04/05 10:16:51;;;;;;;3.53;1.45;;;;;;;18.92;59.71;100577.66;4963347;28;114015;-83
2024/04/05 10:19:28;;;;;;;4.25;1.60;;;;;;;19.02;59.51;100565.16;4942310;28;124068;-83
2024/04/05 10:22:16;;;;;;;5.88;2.08;;;;;;;19.13;59.70;100569.63;4959223;28;123598;-83
2024/04/05 10:24:42;;;;;;;4.50;1.75;;;;;;;19.24;59.78;100573.06;4944206;28;114381;-83
2024/04/05 10:27:11;;;;;;;6.85;1.77;;;;;;;19.35;59.53;100576.69;4957751;28;114675;-83
2024/04/05 10:29:38;;;;;;;3.38;1.40;;;;;;;19.47;59.71;100588.19;4950320;28;124976;-83
2024/04/05 10:32:06;;;;;;;6.35;1.70;;;;;;;19.55;59.32;100589.25;4958036;28;122943;-83
2024/04/05 10:34:33;;;;;;;3.03;1.33;;;;;;;19.65;59.05;100571.31;4929534;28;114712;-83
2024/04/05 10:37:04;;;;;;;3.72;1.13;;;;;;;19.74;59.01;100563.44;4949270;28;116197;-87
2024/04/05 10:39:30;;;;;;;6.15;1.48;;;;;;;19.82;58.84;100571.72;4950734;28;126414;-84
2024/04/05 10:41:56;;;;;;;3.33;1.20;;;;;;;19.93;58.56;100573.41;4952158;28;124014;-84
2024/04/05 10:44:23;;;;;;;3.35;1.40;;;;;;;20.03;58.44;100574.31;4943485;28;115133;-83
2024/04/05 10:46:49;;;;;;;3.28;1.60;;;;;;;20.12;58.22;100578.88;4961334;28;114270;-83
2024/04/05 10:49:16;;;;;;;4.63;1.30;;;;;;;20.19;57.82;100573.78;4930976;28;124023;-82
2024/04/05 10:51:46;;;;;;;3.45;1.48;;;;;;;20.27;57.77;100571.28;4954508;28;124752;-84
2024/04/05 10:54:14;;;;;;;5.63;1.50;;;;;;;20.34;57.66;100561.66;4925613;28;113288;-83
2024/04/05 10:56:42;;;;;;;3.15;1.20;;;;;;;20.40;57.31;100566.47;4942883;28;113263;-84
2024/04/05 10:59:13;;;;;;;2.45;1.27;;;;;;;20.43;57.14;100563.47;4939034;28;123420;-83
2024/04/05 11:01:40;;;;;;;2.65;1.10;;;;;;;20.50;57.04;100565.63;4946252;28;124789;-83
2024/04/05 11:04:10;;;;;;;3.72;1.15;;;;;;;20.54;56.68;100572.44;4946760;28;114210;-83
2024/04/05 11:06:40;;;;;;;4.65;1.48;;;;;;;20.58;56.43;100574.69;4948428;28;113960;-84
2024/04/05 11:09:14;;;;;;;2.38;1.30;;;;;;;20.62;56.33;100586.06;4946975;28;124489;-83
2024/04/05 11:11:41;;;;;;;4.05;1.25;;;;;;;20.66;56.29;100574.00;4944153;28;125127;-84
2024/04/05 11:14:09;;;;;;;2.90;1.15;;;;;;;20.68;56.23;100590.91;4935964;28;115314;-83